| time (UTC) | temp F | wind direction | speed knots | gust knots | rain 1hr in | rain 24hr in | rain mn in | humidity % | barometer mb |
| 20260510214149 | 67 | 251 | 0.0 | 1.7 | 0.00 | 0.01 | 0.01 | 59 | 1012.9 |
| 20260510213646 | 67 | 223 | 0.0 | 1.7 | 0.00 | 0.01 | 0.01 | 56 | 1012.7 |
| 20260510213142 | 67 | 318 | 0.9 | 1.7 | 0.00 | 0.01 | 0.01 | 56 | 1012.7 |
| 20260510212638 | 68 | 11 | 1.7 | 5.2 | 0.00 | 0.01 | 0.01 | 57 | 1012.8 |
| 20260510212136 | 69 | 254 | 0.0 | 1.7 | 0.00 | 0.01 | 0.01 | 63 | 1012.7 |
| 20260510211632 | 69 | 4 | 0.0 | 1.7 | 0.00 | 0.01 | 0.01 | 59 | 1012.5 |
| 20260510211127 | 69 | 260 | 0.9 | 0.9 | 0.00 | 0.01 | 0.01 | 65 | 1012.5 |
| 20260510210624 | 68 | 237 | 0.0 | 0.9 | 0.00 | 0.01 | 0.01 | 63 | 1012.5 |
| 20260510210119 | 69 | 147 | 0.9 | 1.7 | 0.00 | 0.01 | 0.01 | 61 | 1012.8 |
| 20260510205618 | 69 | 339 | 0.9 | 2.6 | 0.00 | 0.01 | 0.01 | 65 | 1012.5 |
| 20260510205114 | 69 | 265 | 0.0 | 1.7 | 0.00 | 0.01 | 0.01 | 69 | 1012.4 |
| 20260510204610 | 68 | 262 | 1.7 | 2.6 | 0.00 | 0.01 | 0.01 | 70 | 1012.3 |
| 20260510204108 | 68 | 244 | 0.9 | 2.6 | 0.00 | 0.01 | 0.01 | 72 | 1012.2 |
| 20260510203604 | 68 | 192 | 1.7 | 1.7 | 0.00 | 0.01 | 0.01 | 72 | 1012.3 |
| 20260510203101 | 68 | 188 | 0.9 | 1.7 | 0.00 | 0.01 | 0.01 | 72 | 1012.0 |
| 20260510202600 | 68 | 280 | 1.7 | 2.6 | 0.00 | 0.01 | 0.01 | 70 | 1011.9 |
| 20260510202056 | 69 | 214 | 1.7 | 2.6 | 0.00 | 0.01 | 0.01 | 70 | 1012.0 |
| 20260510201554 | 69 | 200 | 2.6 | 3.5 | 0.00 | 0.01 | 0.01 | 68 | 1011.8 |
| 20260510201051 | 70 | 211 | 1.7 | 2.6 | 0.00 | 0.01 | 0.01 | 65 | 1011.7 |
| 20260510200546 | 71 | 205 | 0.9 | 1.7 | 0.00 | 0.01 | 0.01 | 64 | 1011.7 |
| 20260510200044 | 71 | 198 | 0.9 | 2.6 | 0.00 | 0.01 | 0.01 | 62 | 1011.7 |
| 20260510195542 | 72 | 205 | 1.7 | 1.7 | 0.00 | 0.01 | 0.01 | 62 | 1011.7 |
| 20260510195038 | 74 | 154 | 1.7 | 1.7 | 0.00 | 0.01 | 0.01 | 59 | 1011.8 |
| 20260510194533 | 74 | 158 | 4.3 | 5.2 | 0.00 | 0.01 | 0.01 | 60 | 1011.9 |
| 20260510194029 | 75 | 293 | 0.0 | 1.7 | 0.00 | 0.01 | 0.01 | 58 | 1012.1 |
| 20260510193524 | 71 | 258 | 0.0 | 0.0 | 0.00 | 0.01 | 0.01 | 62 | 1011.8 |
| 20260510193020 | 70 | 292 | 0.0 | 0.9 | 0.00 | 0.01 | 0.01 | 66 | 1012.1 |
| 20260510192515 | 69 | 151 | 1.7 | 1.7 | 0.00 | 0.01 | 0.01 | 66 | 1012.0 |
| 20260510192011 | 70 | 170 | 1.7 | 2.6 | 0.00 | 0.01 | 0.01 | 66 | 1012.1 |
| 20260510191508 | 70 | 242 | 1.7 | 1.7 | 0.00 | 0.01 | 0.01 | 63 | 1011.9 |
| 20260510191005 | 70 | 215 | 0.9 | 2.6 | 0.00 | 0.01 | 0.01 | 63 | 1012.1 |
| 20260510190502 | 70 | 224 | 2.6 | 3.5 | 0.00 | 0.01 | 0.01 | 63 | 1012.0 |
| 20260510185959 | 70 | 208 | 3.5 | 5.2 | 0.00 | 0.01 | 0.01 | 63 | 1012.2 |
| 20260510185456 | 70 | 239 | 1.7 | 2.6 | 0.00 | 0.01 | 0.01 | 65 | 1012.1 |
| 20260510184953 | 70 | 209 | 1.7 | 2.6 | 0.00 | 0.01 | 0.01 | 62 | 1012.2 |
| 20260510184451 | 70 | 261 | 1.7 | 2.6 | 0.00 | 0.01 | 0.01 | 66 | 1012.2 |
| 20260510183950 | 71 | 216 | 1.7 | 2.6 | 0.00 | 0.01 | 0.01 | 61 | 1012.4 |
| 20260510183447 | 71 | 262 | 2.6 | 3.5 | 0.00 | 0.01 | 0.01 | 63 | 1012.4 |
| 20260510182947 | 71 | 197 | 1.7 | 2.6 | 0.00 | 0.01 | 0.01 | 61 | 1012.0 |
| 20260510182443 | 72 | 195 | 1.7 | 5.2 | 0.00 | 0.01 | 0.01 | 63 | 1012.2 |
| 20260510181939 | 72 | 204 | 1.7 | 2.6 | 0.00 | 0.01 | 0.01 | 63 | 1012.1 |
| 20260510181438 | 71 | 133 | 3.5 | 3.5 | 0.00 | 0.01 | 0.01 | 64 | 1012.1 |
| 20260510180933 | 72 | 195 | 2.6 | 2.6 | 0.00 | 0.01 | 0.01 | 62 | 1012.1 |
| 20260510180431 | 71 | 243 | 0.0 | 5.2 | 0.00 | 0.01 | 0.01 | 61 | 1012.2 |
| 20260510175927 | 72 | 196 | 3.5 | 6.1 | 0.00 | 0.01 | 0.01 | 61 | 1012.4 |
| 20260510175423 | 71 | 200 | 2.6 | 2.6 | 0.00 | 0.01 | 0.01 | 62 | 1012.3 |
| 20260510174919 | 71 | 166 | 1.7 | 2.6 | 0.00 | 0.01 | 0.01 | 65 | 1012.3 |
| 20260510174418 | 71 | 172 | 2.6 | 3.5 | 0.00 | 0.01 | 0.01 | 61 | 1012.4 |
| 20260510173914 | 71 | 202 | 0.9 | 0.9 | 0.00 | 0.01 | 0.01 | 63 | 1012.4 |
| 20260510173409 | 71 | 156 | 2.6 | 3.5 | 0.00 | 0.01 | 0.01 | 63 | 1012.7 |
| 20260510172906 | 71 | 227 | 1.7 | 2.6 | 0.00 | 0.01 | 0.01 | 62 | 1012.5 |
| 20260510172402 | 70 | 199 | 2.6 | 3.5 | 0.00 | 0.01 | 0.01 | 64 | 1012.6 |
| 20260510171858 | 70 | 194 | 3.5 | 7.0 | 0.00 | 0.01 | 0.01 | 66 | 1012.7 |
| 20260510171355 | 70 | 194 | 3.5 | 7.0 | 0.00 | 0.01 | 0.01 | 66 | 1012.4 |
| 20260510170852 | 70 | 335 | 1.7 | 2.6 | 0.00 | 0.01 | 0.01 | 65 | 1012.5 |
| 20260510170349 | 70 | 199 | 1.7 | 5.2 | 0.00 | 0.01 | 0.01 | 66 | 1012.5 |
| 20260510165844 | 70 | 200 | 2.6 | 2.6 | 0.00 | 0.01 | 0.01 | 66 | 1012.8 |
| 20260510165341 | 67 | 158 | 0.9 | 1.7 | 0.00 | 0.01 | 0.01 | 71 | 1012.8 |
| 20260510164838 | 67 | 158 | 0.9 | 1.7 | 0.00 | 0.01 | 0.01 | 71 | 1012.7 |
| 20260510164335 | 65 | 186 | 1.7 | 2.6 | 0.00 | 0.01 | 0.01 | 72 | 1012.8 |
| 20260510163835 | 65 | 186 | 1.7 | 2.6 | 0.00 | 0.01 | 0.01 | 72 | 1013.2 |
| 20260510163332 | 65 | 186 | 1.7 | 2.6 | 0.00 | 0.01 | 0.01 | 72 | 1013.1 |
| 20260510162831 | 65 | 186 | 1.7 | 2.6 | 0.00 | 0.01 | 0.01 | 72 | 1013.2 |
| 20260510162329 | 65 | 186 | 1.7 | 2.6 | 0.00 | 0.01 | 0.01 | 72 | 1013.4 |
| 20260510161825 | 65 | 186 | 1.7 | 2.6 | 0.00 | 0.01 | 0.01 | 72 | 1013.1 |
| 20260510161321 | 65 | 186 | 1.7 | 2.6 | 0.00 | 0.01 | 0.01 | 72 | 1013.0 |
| 20260510160819 | 65 | 186 | 1.7 | 2.6 | 0.00 | 0.01 | 0.01 | 72 | 1013.3 |
| 20260510160315 | 65 | 186 | 1.7 | 2.6 | 0.00 | 0.01 | 0.01 | 72 | 1013.1 |
| 20260510155814 | 66 | 169 | 0.0 | 0.9 | 0.00 | 0.01 | 0.01 | 73 | 1013.3 |
| 20260510155311 | 66 | 169 | 0.0 | 0.9 | 0.00 | 0.01 | 0.01 | 73 | 1013.4 |
| 20260510154807 | 66 | 169 | 0.0 | 0.9 | 0.00 | 0.01 | 0.01 | 73 | 1013.6 |
| 20260510154303 | 65 | 219 | 0.9 | 1.7 | 0.00 | 0.01 | 0.01 | 71 | 1013.5 |
| 20260510153758 | 64 | 110 | 1.7 | 6.1 | 0.00 | 0.01 | 0.01 | 74 | 1013.7 |
| 20260510153254 | 64 | 193 | 1.7 | 2.6 | 0.00 | 0.01 | 0.01 | 75 | 1013.6 |
| 20260510152751 | 63 | 153 | 3.5 | 5.2 | 0.00 | 0.01 | 0.01 | 74 | 1013.6 |
| 20260510152248 | 64 | 186 | 1.7 | 2.6 | 0.00 | 0.01 | 0.01 | 72 | 1013.6 |
| 20260510151744 | 63 | 140 | 1.7 | 1.7 | 0.00 | 0.01 | 0.01 | 75 | 1013.6 |
| 20260510151243 | 62 | 189 | 0.9 | 1.7 | 0.00 | 0.01 | 0.01 | 77 | 1013.7 |
| 20260510150738 | 61 | 200 | 1.7 | 3.5 | 0.00 | 0.01 | 0.01 | 77 | 1013.5 |
| 20260510150234 | 61 | 214 | 0.0 | 0.9 | 0.00 | 0.01 | 0.01 | 77 | 1013.4 |
| 20260510145730 | 0 | 0.0 | 0.0 | 0.00 | 0.00 | 0.00 | 1013.4 | ||
| 20260510145227 | 0 | 0.0 | 0.0 | 0.00 | 0.00 | 0.00 | 1013.5 | ||
| 20260510144723 | 0 | 0.0 | 0.0 | 0.00 | 0.00 | 0.00 | 1013.4 | ||
| 20260510144220 | 0 | 0.0 | 0.0 | 0.00 | 0.00 | 0.00 | 1013.4 | ||
| 20260510143714 | 0 | 0.0 | 0.0 | 0.00 | 0.00 | 0.00 | 1013.5 | ||
| 20260510143211 | 0 | 0.0 | 0.0 | 0.00 | 0.00 | 0.00 | 1013.7 | ||
| 20260510142708 | 0 | 0.0 | 0.0 | 0.00 | 0.00 | 0.00 | 1013.7 | ||
| 20260510142204 | 0 | 0.0 | 0.0 | 0.00 | 0.00 | 0.00 | 1013.7 | ||
| 20260510141701 | 0 | 0.0 | 0.0 | 0.00 | 0.00 | 0.00 | 1013.6 | ||
| 20260510141200 | 0 | 0.0 | 0.0 | 0.00 | 0.00 | 0.00 | 1013.6 | ||
| 20260510140656 | 0 | 0.0 | 0.0 | 0.00 | 0.00 | 0.00 | 1013.6 | ||
| 20260510140155 | 0 | 0.0 | 0.0 | 0.00 | 0.00 | 0.00 | 1013.6 | ||
| 20260510135650 | 0 | 0.0 | 0.0 | 0.00 | 0.00 | 0.00 | 1013.5 | ||
| 20260510135147 | 0 | 0.0 | 0.0 | 0.00 | 0.00 | 0.00 | 1013.6 | ||
| 20260510134644 | 0 | 0.0 | 0.0 | 0.00 | 0.00 | 0.00 | 1013.4 | ||
| 20260510134141 | 0 | 0.0 | 0.0 | 0.00 | 0.00 | 0.00 | 1013.5 | ||
| 20260510133637 | 0 | 0.0 | 0.0 | 0.00 | 0.00 | 0.00 | 1013.7 | ||
| 20260510133132 | 0 | 0.0 | 0.0 | 0.00 | 0.00 | 0.00 | 1013.6 | ||
| 20260510132629 | 0 | 0.0 | 0.0 | 0.00 | 0.00 | 0.00 | 1013.6 | ||
| 20260510132127 | 0 | 0.0 | 0.0 | 0.00 | 0.00 | 0.00 | 1013.8 | ||
| 20260510131624 | 0 | 0.0 | 0.0 | 0.00 | 0.00 | 0.00 | 1013.6 | ||
| 20260510131121 | 0 | 0.0 | 0.0 | 0.00 | 0.00 | 0.00 | 1013.6 | ||
| 20260510130618 | 0 | 0.0 | 0.0 | 0.00 | 0.00 | 0.00 | 1013.6 | ||
| 20260510130115 | 0 | 0.0 | 0.0 | 0.00 | 0.00 | 0.00 | 1013.5 | ||
| 20260510125612 | 0 | 0.0 | 0.0 | 0.00 | 0.00 | 0.00 | 1013.5 | ||
| 20260510125108 | 53 | 281 | 0.9 | 0.9 | 0.00 | 0.01 | 0.01 | 94 | 1013.5 |
| 20260510124604 | 53 | 281 | 0.9 | 0.9 | 0.00 | 0.01 | 0.01 | 94 | 1013.3 |
| 20260510124101 | 53 | 281 | 0.9 | 0.9 | 0.00 | 0.01 | 0.01 | 94 | 1013.2 |
| 20260510123556 | 53 | 281 | 0.9 | 0.9 | 0.00 | 0.01 | 0.01 | 94 | 1013.3 |
| 20260510123053 | 53 | 281 | 0.9 | 0.9 | 0.00 | 0.01 | 0.01 | 94 | 1013.2 |
| 20260510122549 | 53 | 281 | 0.9 | 0.9 | 0.00 | 0.01 | 0.01 | 94 | 1013.2 |
| 20260510122045 | 53 | 281 | 0.9 | 0.9 | 0.00 | 0.01 | 0.01 | 94 | 1013.2 |
| 20260510121542 | 53 | 281 | 0.9 | 0.9 | 0.00 | 0.01 | 0.01 | 94 | 1013.1 |
| 20260510121039 | 53 | 281 | 0.9 | 0.9 | 0.00 | 0.01 | 0.01 | 94 | 1013.0 |
| 20260510120537 | 53 | 281 | 0.9 | 0.9 | 0.00 | 0.01 | 0.01 | 94 | 1013.3 |
| 20260510120032 | 53 | 281 | 0.9 | 0.9 | 0.00 | 0.01 | 0.01 | 94 | 1013.3 |
| 20260510115529 | 53 | 281 | 0.9 | 0.9 | 0.00 | 0.01 | 0.01 | 94 | 1013.2 |
| 20260510115026 | 53 | 302 | 0.0 | 0.0 | 0.00 | 0.01 | 0.01 | 96 | 1013.3 |
| 20260510114522 | 53 | 302 | 0.0 | 0.0 | 0.00 | 0.01 | 0.01 | 96 | 1013.1 |
| 20260510114019 | 53 | 302 | 0.0 | 0.0 | 0.00 | 0.01 | 0.01 | 96 | 1013.1 |
| 20260510113514 | 53 | 255 | 0.0 | 0.0 | 0.00 | 0.01 | 0.01 | 96 | 1013.2 |
| 20260510113012 | 53 | 255 | 0.0 | 0.0 | 0.00 | 0.01 | 0.01 | 96 | 1013.1 |
| 20260510112508 | 53 | 205 | 0.0 | 0.0 | 0.00 | 0.01 | 0.01 | 96 | 1013.0 |
| 20260510112004 | 53 | 176 | 0.0 | 0.0 | 0.00 | 0.01 | 0.01 | 96 | 1013.0 |
| 20260510111501 | 53 | 171 | 0.0 | 0.9 | 0.00 | 0.01 | 0.01 | 96 | 1012.9 |
| 20260510110957 | 52 | 247 | 0.0 | 0.0 | 0.00 | 0.01 | 0.01 | 96 | 1012.9 |
| 20260510110453 | 52 | 222 | 0.0 | 0.9 | 0.00 | 0.01 | 0.01 | 96 | 1012.8 |
| 20260510105949 | 52 | 222 | 0.0 | 0.9 | 0.00 | 0.01 | 0.01 | 96 | 1012.8 |
| 20260510105445 | 52 | 193 | 0.0 | 0.0 | 0.00 | 0.01 | 0.01 | 96 | 1012.8 |
| 20260510104940 | 52 | 193 | 0.0 | 0.0 | 0.00 | 0.01 | 0.01 | 96 | 1012.8 |
| 20260510104437 | 52 | 193 | 0.0 | 0.0 | 0.00 | 0.01 | 0.01 | 96 | 1012.6 |
| 20260510103933 | 52 | 185 | 0.9 | 0.9 | 0.00 | 0.01 | 0.01 | 96 | 1012.5 |
| 20260510103431 | 52 | 227 | 0.0 | 0.0 | 0.00 | 0.01 | 0.01 | 96 | 1012.7 |
| 20260510102926 | 52 | 248 | 0.0 | 0.0 | 0.00 | 0.01 | 0.01 | 96 | 1012.7 |
| 20260510102422 | 52 | 263 | 0.0 | 0.0 | 0.00 | 0.01 | 0.01 | 96 | 1012.6 |
| 20260510101919 | 52 | 263 | 0.0 | 0.0 | 0.00 | 0.01 | 0.01 | 96 | 1012.7 |
| 20260510101417 | 52 | 305 | 0.0 | 0.0 | 0.00 | 0.01 | 0.01 | 96 | 1012.3 |
| 20260510100914 | 52 | 268 | 0.0 | 0.0 | 0.00 | 0.01 | 0.01 | 97 | 1011.9 |
| 20260510100411 | 52 | 192 | 0.9 | 1.7 | 0.00 | 0.01 | 0.01 | 97 | 1012.0 |
| 20260510095908 | 52 | 162 | 1.7 | 1.7 | 0.00 | 0.01 | 0.01 | 97 | 1012.3 |
| 20260510095403 | 52 | 272 | 0.0 | 0.0 | 0.00 | 0.01 | 0.01 | 97 | 1012.5 |
| 20260510094902 | 52 | 245 | 0.0 | 0.9 | 0.00 | 0.01 | 0.01 | 97 | 1012.4 |
| 20260510094357 | 52 | 178 | 0.9 | 0.9 | 0.00 | 0.01 | 0.01 | 97 | 1012.4 |
| 20260510093854 | 52 | 209 | 0.9 | 1.7 | 0.00 | 0.01 | 0.01 | 97 | 1012.4 |
| 20260510093349 | 52 | 239 | 0.0 | 0.0 | 0.00 | 0.01 | 0.01 | 97 | 1012.5 |
| 20260510092846 | 52 | 239 | 0.0 | 0.0 | 0.00 | 0.01 | 0.01 | 97 | 1012.4 |
| 20260510092342 | 52 | 239 | 0.0 | 0.0 | 0.00 | 0.01 | 0.01 | 97 | 1012.5 |
| 20260510091838 | 52 | 239 | 0.0 | 0.0 | 0.00 | 0.01 | 0.01 | 97 | 1012.5 |
| 20260510091335 | 52 | 165 | 0.0 | 0.0 | 0.00 | 0.01 | 0.01 | 97 | 1012.7 |
| 20260510090832 | 52 | 165 | 0.0 | 0.0 | 0.00 | 0.01 | 0.01 | 97 | 1012.5 |
| 20260510090328 | 52 | 273 | 0.0 | 0.0 | 0.00 | 0.01 | 0.01 | 97 | 1012.5 |
| 20260510085824 | 52 | 273 | 0.0 | 0.0 | 0.00 | 0.01 | 0.01 | 97 | 1012.6 |
| 20260510085324 | 52 | 273 | 0.0 | 0.0 | 0.00 | 0.01 | 0.01 | 97 | 1012.5 |
| 20260510084820 | 52 | 273 | 0.0 | 0.0 | 0.00 | 0.01 | 0.01 | 97 | 1012.7 |
| 20260510084317 | 52 | 273 | 0.0 | 0.0 | 0.00 | 0.01 | 0.01 | 97 | 1012.7 |
| 20260510083814 | 52 | 272 | 0.0 | 0.0 | 0.00 | 0.01 | 0.01 | 97 | 1012.7 |
| 20260510083311 | 52 | 289 | 0.0 | 0.0 | 0.00 | 0.01 | 0.01 | 96 | 1012.6 |
| 20260510082806 | 52 | 289 | 0.0 | 0.0 | 0.00 | 0.01 | 0.01 | 96 | 1012.4 |
| 20260510082306 | 52 | 289 | 0.0 | 0.0 | 0.00 | 0.01 | 0.01 | 96 | 1012.2 |
| 20260510081802 | 52 | 289 | 0.0 | 0.0 | 0.00 | 0.01 | 0.01 | 96 | 1012.5 |
| 20260510081258 | 52 | 289 | 0.0 | 0.0 | 0.00 | 0.01 | 0.01 | 96 | 1012.4 |
| 20260510080754 | 52 | 290 | 0.0 | 0.0 | 0.00 | 0.01 | 0.01 | 96 | 1012.3 |
| 20260510080249 | 52 | 195 | 0.0 | 0.0 | 0.00 | 0.01 | 0.01 | 96 | 1012.3 |
| 20260510075747 | 52 | 320 | 0.0 | 0.0 | 0.00 | 0.01 | 0.01 | 96 | 1012.5 |
| 20260510075244 | 52 | 260 | 0.0 | 0.0 | 0.00 | 0.01 | 0.01 | 96 | 1012.4 |
| 20260510074741 | 52 | 253 | 0.0 | 0.0 | 0.00 | 0.01 | 0.01 | 96 | 1012.1 |
| 20260510074238 | 52 | 253 | 0.0 | 0.0 | 0.00 | 0.01 | 0.01 | 96 | 1012.1 |
| 20260510073734 | 52 | 253 | 0.0 | 0.0 | 0.00 | 0.01 | 0.01 | 96 | 1012.3 |
| 20260510073230 | 52 | 293 | 0.0 | 0.0 | 0.00 | 0.01 | 0.01 | 96 | 1012.3 |
| 20260510072726 | 52 | 263 | 0.0 | 0.0 | 0.00 | 0.01 | 0.01 | 96 | 1012.2 |
| 20260510072223 | 52 | 252 | 0.0 | 0.0 | 0.00 | 0.01 | 0.01 | 96 | 1012.2 |
| 20260510071719 | 52 | 239 | 0.0 | 0.0 | 0.00 | 0.01 | 0.01 | 96 | 1012.2 |
| 20260510071216 | 52 | 225 | 0.0 | 0.0 | 0.00 | 0.01 | 0.01 | 96 | 1012.1 |
| 20260510070714 | 52 | 240 | 0.0 | 0.0 | 0.00 | 0.01 | 0.01 | 96 | 1012.1 |
| 20260510070211 | 52 | 238 | 0.0 | 0.0 | 0.00 | 0.01 | 0.01 | 96 | 1012.2 |
| 20260510065706 | 52 | 227 | 0.0 | 0.0 | 0.00 | 0.01 | 0.01 | 96 | 1012.2 |
| 20260510065203 | 52 | 238 | 0.0 | 0.0 | 0.00 | 0.01 | 0.01 | 96 | 1012.0 |
| 20260510064659 | 52 | 276 | 0.0 | 0.0 | 0.00 | 0.01 | 0.01 | 96 | 1012.2 |
| 20260510064156 | 52 | 272 | 0.0 | 0.0 | 0.00 | 0.01 | 0.01 | 96 | 1012.0 |
| 20260510063653 | 52 | 272 | 0.0 | 0.0 | 0.00 | 0.01 | 0.01 | 96 | 1012.2 |
| 20260510063149 | 52 | 228 | 0.0 | 0.9 | 0.00 | 0.01 | 0.01 | 96 | 1012.2 |
| 20260510062646 | 52 | 231 | 0.0 | 0.9 | 0.00 | 0.01 | 0.01 | 96 | 1011.8 |
| 20260510062142 | 52 | 199 | 0.0 | 0.9 | 0.00 | 0.01 | 0.01 | 96 | 1011.8 |
| 20260510061637 | 52 | 263 | 0.0 | 0.9 | 0.00 | 0.01 | 0.01 | 96 | 1011.6 |
| 20260510061135 | 52 | 231 | 0.0 | 0.9 | 0.00 | 0.01 | 0.01 | 96 | 1011.6 |
| 20260510060631 | 52 | 183 | 0.9 | 0.9 | 0.00 | 0.01 | 0.01 | 96 | 1011.7 |
| 20260510060128 | 52 | 203 | 0.9 | 1.7 | 0.00 | 0.01 | 0.01 | 96 | 1011.8 |
| 20260510055624 | 52 | 208 | 0.0 | 0.9 | 0.00 | 0.01 | 0.01 | 96 | 1011.8 |
| 20260510055122 | 52 | 241 | 0.0 | 0.9 | 0.00 | 0.01 | 0.01 | 96 | 1011.8 |
| 20260510054617 | 52 | 208 | 0.0 | 0.9 | 0.00 | 0.01 | 0.01 | 96 | 1011.8 |
| 20260510054113 | 52 | 273 | 0.0 | 0.0 | 0.00 | 0.01 | 0.01 | 96 | 1011.8 |
| 20260510053612 | 52 | 277 | 0.0 | 0.0 | 0.00 | 0.01 | 0.01 | 96 | 1011.8 |
| 20260510053110 | 52 | 189 | 0.9 | 0.9 | 0.00 | 0.01 | 0.01 | 96 | 1011.9 |
| 20260510052605 | 52 | 260 | 0.0 | 0.0 | 0.00 | 0.01 | 0.01 | 96 | 1012.1 |
| 20260510052102 | 52 | 278 | 0.0 | 0.0 | 0.00 | 0.01 | 0.01 | 96 | 1012.1 |
| 20260510051557 | 52 | 267 | 0.0 | 0.0 | 0.00 | 0.01 | 0.01 | 96 | 1012.0 |
| 20260510051054 | 52 | 254 | 0.0 | 0.0 | 0.00 | 0.01 | 0.01 | 96 | 1012.2 |
| 20260510050552 | 52 | 235 | 0.0 | 0.0 | 0.00 | 0.01 | 0.01 | 96 | 1012.1 |
| 20260510050049 | 52 | 217 | 0.0 | 0.0 | 0.00 | 0.01 | 0.01 | 96 | 1012.1 |
| 20260510045546 | 53 | 237 | 0.0 | 0.0 | 0.00 | 0.01 | 0.01 | 96 | 1012.3 |
| 20260510045042 | 53 | 234 | 0.0 | 0.0 | 0.00 | 0.01 | 0.01 | 96 | 1012.2 |
| 20260510044538 | 53 | 225 | 0.0 | 0.0 | 0.00 | 0.01 | 0.01 | 96 | 1012.1 |
| 20260510044036 | 53 | 237 | 0.0 | 0.0 | 0.05 | 0.01 | 0.01 | 96 | 1011.9 |
| 20260510043531 | 53 | 241 | 0.0 | 0.0 | 0.05 | 0.01 | 0.01 | 96 | 1011.9 |
| 20260510043027 | 53 | 214 | 0.0 | 0.9 | 0.00 | 0.00 | 0.00 | 96 | 1011.9 |
| 20260510042521 | 53 | 194 | 0.0 | 0.0 | 0.00 | 0.00 | 0.00 | 96 | 1011.9 |
| 20260510042021 | 53 | 269 | 0.0 | 0.0 | 0.00 | 0.00 | 0.00 | 96 | 1011.9 |
| 20260510041520 | 53 | 245 | 0.0 | 0.0 | 0.00 | 0.00 | 0.00 | 96 | 1012.0 |
| 20260510041017 | 53 | 249 | 0.0 | 0.0 | 0.00 | 0.00 | 0.00 | 96 | 1012.3 |
| 20260510040513 | 53 | 249 | 0.0 | 0.0 | 0.00 | 0.00 | 0.00 | 96 | 1012.2 |
| 20260510040009 | 53 | 249 | 0.0 | 0.0 | 0.00 | 0.65 | 0.65 | 96 | 1012.0 |
| 20260510035506 | 53 | 249 | 0.0 | 0.0 | 0.00 | 0.65 | 0.65 | 96 | 1012.0 |
| 20260510035005 | 53 | 249 | 0.0 | 0.0 | 0.00 | 0.65 | 0.65 | 96 | 1012.0 |
| 20260510034504 | 53 | 251 | 0.0 | 0.0 | 0.00 | 0.65 | 0.65 | 96 | 1011.9 |
| 20260510034000 | 53 | 275 | 0.0 | 0.0 | 0.00 | 0.65 | 0.65 | 96 | 1012.1 |
| 20260510033456 | 53 | 275 | 0.0 | 0.0 | 0.00 | 0.65 | 0.65 | 96 | 1012.1 |
| 20260510032954 | 53 | 293 | 0.0 | 0.0 | 0.00 | 0.65 | 0.65 | 96 | 1012.1 |
| 20260510032450 | 53 | 302 | 0.0 | 0.0 | 0.00 | 0.65 | 0.65 | 96 | 1012.2 |
| 20260510031951 | 52 | 284 | 0.0 | 0.0 | 0.00 | 0.65 | 0.65 | 96 | 1012.1 |
| 20260510031447 | 52 | 283 | 0.0 | 0.0 | 0.00 | 0.65 | 0.65 | 96 | 1012.1 |
| 20260510030942 | 53 | 284 | 0.0 | 0.0 | 0.00 | 0.65 | 0.65 | 96 | 1011.9 |
| 20260510030438 | 52 | 284 | 0.0 | 0.0 | 0.00 | 0.65 | 0.65 | 96 | 1011.9 |
| 20260510025936 | 52 | 274 | 0.0 | 0.0 | 0.00 | 0.65 | 0.65 | 96 | 1011.9 |
| 20260510025433 | 52 | 267 | 0.0 | 0.0 | 0.00 | 0.65 | 0.65 | 96 | 1011.9 |
| 20260510024930 | 52 | 265 | 0.0 | 0.0 | 0.00 | 0.65 | 0.65 | 96 | 1011.8 |
| 20260510024426 | 52 | 265 | 0.0 | 0.0 | 0.00 | 0.65 | 0.65 | 96 | 1011.7 |
| 20260510023923 | 52 | 265 | 0.0 | 0.0 | 0.00 | 0.65 | 0.65 | 96 | 1011.9 |
| 20260510023419 | 52 | 265 | 0.0 | 0.0 | 0.00 | 0.65 | 0.65 | 96 | 1011.8 |
| 20260510022916 | 52 | 236 | 0.0 | 0.0 | 0.00 | 0.65 | 0.65 | 96 | 1011.9 |
| 20260510022415 | 52 | 160 | 0.0 | 0.9 | 0.00 | 0.65 | 0.65 | 96 | 1011.9 |
| 20260510021914 | 52 | 274 | 0.0 | 0.0 | 0.00 | 0.65 | 0.65 | 96 | 1012.0 |
| 20260510021413 | 52 | 308 | 0.0 | 0.0 | 0.00 | 0.65 | 0.65 | 96 | 1012.1 |
| 20260510020909 | 52 | 309 | 0.0 | 0.0 | 0.00 | 0.65 | 0.65 | 96 | 1011.9 |
| 20260510020404 | 52 | 308 | 0.0 | 0.0 | 0.00 | 0.65 | 0.65 | 96 | 1011.9 |
| 20260510015900 | 53 | 309 | 0.0 | 0.0 | 0.00 | 0.65 | 0.65 | 96 | 1012.1 |
| 20260510015355 | 53 | 308 | 0.0 | 0.0 | 0.00 | 0.65 | 0.65 | 96 | 1012.1 |
| 20260510014851 | 53 | 304 | 0.0 | 0.0 | 0.00 | 0.65 | 0.65 | 96 | 1012.2 |
| 20260510014349 | 53 | 304 | 0.0 | 0.0 | 0.00 | 0.65 | 0.65 | 96 | 1012.0 |
| 20260510013845 | 53 | 304 | 0.0 | 0.0 | 0.00 | 0.65 | 0.65 | 96 | 1012.2 |
| 20260510013340 | 53 | 304 | 0.0 | 0.0 | 0.00 | 0.65 | 0.65 | 96 | 1012.1 |
| 20260510012836 | 53 | 304 | 0.0 | 0.0 | 0.00 | 0.65 | 0.65 | 96 | 1012.1 |
| 20260510012335 | 53 | 304 | 0.0 | 0.0 | 0.00 | 0.65 | 0.65 | 96 | 1012.2 |
| 20260510011831 | 53 | 304 | 0.0 | 0.0 | 0.00 | 0.65 | 0.65 | 96 | 1011.9 |
| 20260510011326 | 53 | 304 | 0.0 | 0.0 | 0.00 | 0.65 | 0.65 | 96 | 1011.9 |
| 20260510010823 | 53 | 298 | 0.0 | 0.0 | 0.00 | 0.65 | 0.65 | 96 | 1011.9 |
| 20260510010320 | 53 | 297 | 0.0 | 0.0 | 0.00 | 0.65 | 0.65 | 96 | 1012.0 |
| 20260510005817 | 53 | 296 | 0.0 | 0.0 | 0.00 | 0.65 | 0.65 | 96 | 1011.7 |
| 20260510005313 | 53 | 296 | 0.0 | 0.0 | 0.00 | 0.65 | 0.65 | 96 | 1011.7 |
| 20260510004811 | 53 | 297 | 0.0 | 0.0 | 0.00 | 0.65 | 0.65 | 96 | 1011.8 |
| 20260510004308 | 53 | 312 | 0.0 | 0.0 | 0.00 | 0.65 | 0.65 | 95 | 1011.7 |
| 20260510003805 | 53 | 308 | 0.0 | 0.0 | 0.00 | 0.65 | 0.65 | 96 | 1011.5 |
| 20260510003302 | 53 | 117 | 0.0 | 0.0 | 0.00 | 0.65 | 0.65 | 95 | 1011.5 |
| 20260510002801 | 53 | 88 | 0.0 | 0.0 | 0.00 | 0.65 | 0.65 | 95 | 1011.4 |
| 20260510002259 | 53 | 108 | 0.0 | 0.0 | 0.00 | 0.65 | 0.65 | 95 | 1011.4 |
| 20260510001755 | 53 | 110 | 0.0 | 0.0 | 0.00 | 0.65 | 0.65 | 95 | 1011.2 |
| 20260510001253 | 53 | 272 | 0.0 | 0.0 | 0.00 | 0.65 | 0.65 | 95 | 1011.2 |
| 20260510000748 | 53 | 226 | 0.0 | 0.0 | 0.00 | 0.65 | 0.65 | 95 | 1011.3 |
| 20260510000248 | 53 | 224 | 0.0 | 0.0 | 0.00 | 0.65 | 0.65 | 95 | 1011.3 |
| 20260509235744 | 53 | 199 | 0.0 | 0.0 | 0.00 | 0.65 | 0.65 | 95 | 1011.4 |
| 20260509235240 | 53 | 171 | 0.0 | 0.9 | 0.00 | 0.65 | 0.65 | 95 | 1011.4 |
| 20260509234735 | 53 | 160 | 0.9 | 1.7 | 0.00 | 0.65 | 0.65 | 95 | 1011.5 |
| 20260509234233 | 53 | 209 | 0.9 | 0.9 | 0.00 | 0.65 | 0.65 | 95 | 1011.6 |
| 20260509233731 | 53 | 216 | 0.0 | 0.0 | 0.00 | 0.65 | 0.65 | 95 | 1011.7 |
| 20260509233228 | 53 | 209 | 0.9 | 1.7 | 0.07 | 0.65 | 0.65 | 95 | 1011.7 |
| 20260509232724 | 52 | 211 | 0.0 | 0.9 | 0.07 | 0.65 | 0.65 | 95 | 1011.7 |
| 20260509232221 | 52 | 218 | 0.0 | 0.9 | 0.00 | 0.64 | 0.64 | 95 | 1011.7 |
| 20260509231717 | 52 | 223 | 0.0 | 0.9 | 0.00 | 0.64 | 0.64 | 95 | 1011.8 |
| 20260509231215 | 52 | 202 | 0.0 | 0.9 | 0.00 | 0.64 | 0.64 | 95 | 1011.7 |
| 20260509230713 | 52 | 245 | 0.0 | 0.9 | 0.00 | 0.64 | 0.64 | 95 | 1011.8 |
| 20260509230209 | 52 | 289 | 0.9 | 1.7 | 0.00 | 0.64 | 0.64 | 95 | 1011.7 |
| 20260509225705 | 52 | 201 | 0.0 | 2.6 | 0.05 | 0.64 | 0.64 | 95 | 1011.7 |
| 20260509225201 | 52 | 161 | 0.9 | 1.7 | 0.05 | 0.64 | 0.64 | 95 | 1011.8 |
| 20260509224656 | 52 | 186 | 0.9 | 0.9 | 0.07 | 0.63 | 0.63 | 95 | 1011.6 |
| 20260509224154 | 52 | 173 | 0.9 | 1.7 | 0.12 | 0.63 | 0.63 | 95 | 1011.8 |
| 20260509223650 | 52 | 179 | 0.9 | 0.9 | 0.05 | 0.62 | 0.62 | 95 | 1011.9 |
| 20260509223147 | 52 | 129 | 0.0 | 0.9 | 0.00 | 0.61 | 0.61 | 95 | 1012.0 |
| 20260509222644 | 52 | 237 | 0.0 | 0.9 | 0.07 | 0.61 | 0.61 | 95 | 1012.2 |
| 20260509222139 | 52 | 158 | 0.9 | 1.7 | 0.07 | 0.61 | 0.61 | 95 | 1012.3 |
| 20260509221636 | 52 | 167 | 0.0 | 0.9 | 0.00 | 0.60 | 0.60 | 95 | 1012.1 |
| 20260509221132 | 51 | 310 | 0.0 | 0.9 | 0.00 | 0.60 | 0.60 | 95 | 1012.3 |
| 20260509220628 | 51 | 188 | 0.9 | 0.9 | 0.05 | 0.60 | 0.60 | 95 | 1012.3 |
| 20260509220124 | 51 | 208 | 0.0 | 0.0 | 0.05 | 0.60 | 0.60 | 95 | 1012.0 |
| 20260509215620 | 51 | 209 | 0.0 | 0.9 | 0.00 | 0.59 | 0.59 | 94 | 1012.0 |
| 20260509215117 | 51 | 191 | 0.0 | 0.9 | 0.07 | 0.59 | 0.59 | 94 | 1012.1 |
| 20260509214614 | 51 | 273 | 0.0 | 0.0 | 0.07 | 0.59 | 0.59 | 94 | 1012.2 |